sensor_id;sensor_type;location;lat;lon;timestamp;temperature;humidity
8778;DHT22;4425;50.872;4.712;2023-04-01T00:02:16;10.40;99.90
8778;DHT22;4425;50.872;4.712;2023-04-01T00:04:43;10.50;99.90
8778;DHT22;4425;50.872;4.712;2023-04-01T00:07:12;10.40;99.90
8778;DHT22;4425;50.872;4.712;2023-04-01T00:09:39;10.50;99.90
8778;DHT22;4425;50.872;4.712;2023-04-01T00:12:06;10.40;99.90
8778;DHT22;4425;50.872;4.712;2023-04-01T00:14:34;10.50;99.90
8778;DHT22;4425;50.872;4.712;2023-04-01T00:17:02;10.50;99.90
8778;DHT22;4425;50.872;4.712;2023-04-01T00:19:30;10.50;99.90
8778;DHT22;4425;50.872;4.712;2023-04-01T00:21:58;10.70;99.90
8778;DHT22;4425;50.872;4.712;2023-04-01T00:24:26;10.50;99.90
8778;DHT22;4425;50.872;4.712;2023-04-01T00:26:54;10.50;99.90
8778;DHT22;4425;50.872;4.712;2023-04-01T00:29:21;10.50;99.90
8778;DHT22;4425;50.872;4.712;2023-04-01T00:31:49;10.40;99.90
8778;DHT22;4425;50.872;4.712;2023-04-01T00:34:16;10.50;99.90
8778;DHT22;4425;50.872;4.712;2023-04-01T00:36:43;10.50;99.90
8778;DHT22;4425;50.872;4.712;2023-04-01T00:39:12;10.50;99.90
8778;DHT22;4425;50.872;4.712;2023-04-01T00:41:44;10.40;99.90
8778;DHT22;4425;50.872;4.712;2023-04-01T00:44:15;10.50;99.90
8778;DHT22;4425;50.872;4.712;2023-04-01T00:46:43;10.50;99.90
8778;DHT22;4425;50.872;4.712;2023-04-01T00:49:10;10.50;99.90
8778;DHT22;4425;50.872;4.712;2023-04-01T00:51:39;10.50;99.90
8778;DHT22;4425;50.872;4.712;2023-04-01T00:54:09;10.50;99.90
8778;DHT22;4425;50.872;4.712;2023-04-01T00:56:38;10.50;99.90
8778;DHT22;4425;50.872;4.712;2023-04-01T00:59:11;10.40;99.90
8778;DHT22;4425;50.872;4.712;2023-04-01T01:01:40;10.40;99.90
8778;DHT22;4425;50.872;4.712;2023-04-01T01:04:18;10.30;99.90
8778;DHT22;4425;50.872;4.712;2023-04-01T01:06:51;10.30;99.90
8778;DHT22;4425;50.872;4.712;2023-04-01T01:09:28;10.30;99.90
8778;DHT22;4425;50.872;4.712;2023-04-01T01:12:04;10.20;99.90
8778;DHT22;4425;50.872;4.712;2023-04-01T01:14:46;10.30;99.90
8778;DHT22;4425;50.872;4.712;2023-04-01T01:17:23;10.30;99.90
8778;DHT22;4425;50.872;4.712;2023-04-01T01:26:49;10.30;99.90
8778;DHT22;4425;50.872;4.712;2023-04-01T01:29:43;10.40;99.90
8778;DHT22;4425;50.872;4.712;2023-04-01T01:32:20;10.30;99.90
8778;DHT22;4425;50.872;4.712;2023-04-01T01:34:54;10.40;99.90
8778;DHT22;4425;50.872;4.712;2023-04-01T01:37:25;10.60;99.90
8778;DHT22;4425;50.872;4.712;2023-04-01T01:39:55;10.40;99.90
8778;DHT22;4425;50.872;4.712;2023-04-01T01:42:24;10.30;99.90
8778;DHT22;4425;50.872;4.712;2023-04-01T01:44:54;10.30;99.90
8778;DHT22;4425;50.872;4.712;2023-04-01T01:47:22;10.30;99.90
8778;DHT22;4425;50.872;4.712;2023-04-01T01:49:51;10.30;99.90
8778;DHT22;4425;50.872;4.712;2023-04-01T01:52:19;10.30;99.90
8778;DHT22;4425;50.872;4.712;2023-04-01T01:54:51;10.30;99.90
8778;DHT22;4425;50.872;4.712;2023-04-01T01:57:22;10.30;99.90
8778;DHT22;4425;50.872;4.712;2023-04-01T01:59:52;10.30;99.90
8778;DHT22;4425;50.872;4.712;2023-04-01T02:02:22;10.50;99.90
8778;DHT22;4425;50.872;4.712;2023-04-01T02:04:51;10.40;99.90
8778;DHT22;4425;50.872;4.712;2023-04-01T02:07:22;10.40;99.90
8778;DHT22;4425;50.872;4.712;2023-04-01T02:09:52;10.40;99.90
8778;DHT22;4425;50.872;4.712;2023-04-01T02:12:19;10.40;99.90
8778;DHT22;4425;50.872;4.712;2023-04-01T02:14:52;10.30;99.90
8778;DHT22;4425;50.872;4.712;2023-04-01T02:17:21;10.40;99.90
8778;DHT22;4425;50.872;4.712;2023-04-01T02:19:52;10.50;99.90
8778;DHT22;4425;50.872;4.712;2023-04-01T02:22:25;10.30;99.90
8778;DHT22;4425;50.872;4.712;2023-04-01T02:24:58;10.30;99.90
8778;DHT22;4425;50.872;4.712;2023-04-01T02:27:26;10.30;99.90
8778;DHT22;4425;50.872;4.712;2023-04-01T02:29:53;10.30;99.90
8778;DHT22;4425;50.872;4.712;2023-04-01T02:32:20;10.30;99.90
8778;DHT22;4425;50.872;4.712;2023-04-01T02:34:48;10.30;99.90
8778;DHT22;4425;50.872;4.712;2023-04-01T02:37:16;10.30;99.90
8778;DHT22;4425;50.872;4.712;2023-04-01T02:39:43;10.20;99.90
8778;DHT22;4425;50.872;4.712;2023-04-01T02:42:12;10.20;99.90
8778;DHT22;4425;50.872;4.712;2023-04-01T02:44:40;10.20;99.90
8778;DHT22;4425;50.872;4.712;2023-04-01T02:47:07;10.20;99.90
8778;DHT22;4425;50.872;4.712;2023-04-01T02:49:35;10.20;99.90
8778;DHT22;4425;50.872;4.712;2023-04-01T02:52:02;10.10;99.90
8778;DHT22;4425;50.872;4.712;2023-04-01T02:54:29;10.10;99.90
8778;DHT22;4425;50.872;4.712;2023-04-01T02:56:56;10.00;99.90
8778;DHT22;4425;50.872;4.712;2023-04-01T02:59:24;10.10;99.90
8778;DHT22;4425;50.872;4.712;2023-04-01T03:01:51;10.10;99.90
8778;DHT22;4425;50.872;4.712;2023-04-01T03:04:18;10.00;99.90
8778;DHT22;4425;50.872;4.712;2023-04-01T03:06:45;10.10;99.90
8778;DHT22;4425;50.872;4.712;2023-04-01T03:09:12;10.20;99.90
8778;DHT22;4425;50.872;4.712;2023-04-01T03:11:39;10.00;99.90
8778;DHT22;4425;50.872;4.712;2023-04-01T03:14:07;10.00;99.90
8778;DHT22;4425;50.872;4.712;2023-04-01T03:16:35;9.90;99.90
8778;DHT22;4425;50.872;4.712;2023-04-01T03:19:02;10.00;99.90
8778;DHT22;4425;50.872;4.712;2023-04-01T03:21:29;10.00;99.90
8778;DHT22;4425;50.872;4.712;2023-04-01T03:23:56;10.00;99.90
8778;DHT22;4425;50.872;4.712;2023-04-01T03:26:24;10.10;99.90
8778;DHT22;4425;50.872;4.712;2023-04-01T03:28:52;10.00;99.90
8778;DHT22;4425;50.872;4.712;2023-04-01T03:31:19;10.00;99.90
8778;DHT22;4425;50.872;4.712;2023-04-01T03:33:47;10.00;99.90
8778;DHT22;4425;50.872;4.712;2023-04-01T03:36:16;10.00;99.90
8778;DHT22;4425;50.872;4.712;2023-04-01T03:38:43;10.00;99.90
8778;DHT22;4425;50.872;4.712;2023-04-01T03:41:12;10.00;99.90
8778;DHT22;4425;50.872;4.712;2023-04-01T03:43:40;10.20;99.90
8778;DHT22;4425;50.872;4.712;2023-04-01T03:46:08;10.00;99.90
8778;DHT22;4425;50.872;4.712;2023-04-01T03:48:35;10.00;99.90
8778;DHT22;4425;50.872;4.712;2023-04-01T03:51:06;10.10;99.90
8778;DHT22;4425;50.872;4.712;2023-04-01T03:53:33;10.20;99.90
8778;DHT22;4425;50.872;4.712;2023-04-01T03:56:03;10.10;99.90
8778;DHT22;4425;50.872;4.712;2023-04-01T03:58:30;10.10;99.90
8778;DHT22;4425;50.872;4.712;2023-04-01T04:00:57;10.00;99.90
8778;DHT22;4425;50.872;4.712;2023-04-01T04:03:25;10.00;99.90
8778;DHT22;4425;50.872;4.712;2023-04-01T04:05:52;10.00;99.90
8778;DHT22;4425;50.872;4.712;2023-04-01T04:08:20;10.00;99.90
8778;DHT22;4425;50.872;4.712;2023-04-01T04:10:51;10.10;99.90
8778;DHT22;4425;50.872;4.712;2023-04-01T04:13:20;10.00;99.90
8778;DHT22;4425;50.872;4.712;2023-04-01T04:15:47;10.10;99.90
8778;DHT22;4425;50.872;4.712;2023-04-01T04:18:14;10.00;99.90
8778;DHT22;4425;50.872;4.712;2023-04-01T04:20:44;10.10;99.90
8778;DHT22;4425;50.872;4.712;2023-04-01T04:23:12;10.10;99.90
8778;DHT22;4425;50.872;4.712;2023-04-01T04:25:40;10.10;99.90
8778;DHT22;4425;50.872;4.712;2023-04-01T04:28:07;10.10;99.90
8778;DHT22;4425;50.872;4.712;2023-04-01T04:30:34;10.00;99.90
8778;DHT22;4425;50.872;4.712;2023-04-01T04:33:01;10.10;99.90
8778;DHT22;4425;50.872;4.712;2023-04-01T04:35:28;10.20;99.90
8778;DHT22;4425;50.872;4.712;2023-04-01T04:37:55;10.00;99.90
8778;DHT22;4425;50.872;4.712;2023-04-01T04:40:22;10.10;99.90
8778;DHT22;4425;50.872;4.712;2023-04-01T04:42:50;10.00;99.90
8778;DHT22;4425;50.872;4.712;2023-04-01T04:45:18;10.00;99.90
8778;DHT22;4425;50.872;4.712;2023-04-01T04:47:45;10.00;99.90
8778;DHT22;4425;50.872;4.712;2023-04-01T04:50:12;9.80;99.90
8778;DHT22;4425;50.872;4.712;2023-04-01T04:52:39;9.70;99.90
8778;DHT22;4425;50.872;4.712;2023-04-01T04:55:07;9.90;99.90
8778;DHT22;4425;50.872;4.712;2023-04-01T04:57:34;9.90;99.90
8778;DHT22;4425;50.872;4.712;2023-04-01T05:00:03;9.90;99.90
8778;DHT22;4425;50.872;4.712;2023-04-01T05:02:31;9.90;99.90
8778;DHT22;4425;50.872;4.712;2023-04-01T05:04:58;9.80;99.90
8778;DHT22;4425;50.872;4.712;2023-04-01T05:07:24;9.80;99.90
8778;DHT22;4425;50.872;4.712;2023-04-01T05:09:51;9.80;99.90
8778;DHT22;4425;50.872;4.712;2023-04-01T05:12:18;9.80;99.90
8778;DHT22;4425;50.872;4.712;2023-04-01T05:14:45;9.90;99.90
8778;DHT22;4425;50.872;4.712;2023-04-01T05:17:14;9.80;99.90
8778;DHT22;4425;50.872;4.712;2023-04-01T05:19:41;9.80;99.90
8778;DHT22;4425;50.872;4.712;2023-04-01T05:22:08;9.80;99.90
8778;DHT22;4425;50.872;4.712;2023-04-01T05:24:35;10.00;99.90
8778;DHT22;4425;50.872;4.712;2023-04-01T05:27:02;9.80;99.90
8778;DHT22;4425;50.872;4.712;2023-04-01T05:29:29;9.90;99.90
8778;DHT22;4425;50.872;4.712;2023-04-01T05:31:56;9.90;99.90
8778;DHT22;4425;50.872;4.712;2023-04-01T05:34:24;9.90;99.90
8778;DHT22;4425;50.872;4.712;2023-04-01T05:36:51;9.90;99.90
8778;DHT22;4425;50.872;4.712;2023-04-01T05:39:18;9.90;99.90
8778;DHT22;4425;50.872;4.712;2023-04-01T05:41:45;9.90;99.90
8778;DHT22;4425;50.872;4.712;2023-04-01T05:44:12;9.80;99.90
8778;DHT22;4425;50.872;4.712;2023-04-01T05:46:40;9.80;99.90
8778;DHT22;4425;50.872;4.712;2023-04-01T05:49:07;9.80;99.90
8778;DHT22;4425;50.872;4.712;2023-04-01T05:51:35;9.90;99.90
8778;DHT22;4425;50.872;4.712;2023-04-01T05:54:04;9.90;99.90
8778;DHT22;4425;50.872;4.712;2023-04-01T05:56:31;9.90;99.90
8778;DHT22;4425;50.872;4.712;2023-04-01T05:58:58;10.10;99.90
8778;DHT22;4425;50.872;4.712;2023-04-01T06:01:25;9.90;99.90
8778;DHT22;4425;50.872;4.712;2023-04-01T06:03:52;9.90;99.90
8778;DHT22;4425;50.872;4.712;2023-04-01T06:06:24;10.00;99.90
8778;DHT22;4425;50.872;4.712;2023-04-01T06:08:53;9.90;99.90
8778;DHT22;4425;50.872;4.712;2023-04-01T06:11:29;9.90;99.90
8778;DHT22;4425;50.872;4.712;2023-04-01T06:14:07;9.90;99.90
8778;DHT22;4425;50.872;4.712;2023-04-01T06:16:46;9.90;99.90
8778;DHT22;4425;50.872;4.712;2023-04-01T06:19:24;9.90;99.90
8778;DHT22;4425;50.872;4.712;2023-04-01T06:22:05;10.00;99.90
8778;DHT22;4425;50.872;4.712;2023-04-01T06:24:44;9.90;99.90
8778;DHT22;4425;50.872;4.712;2023-04-01T06:27:23;9.90;99.90
8778;DHT22;4425;50.872;4.712;2023-04-01T06:30:04;10.10;99.90
8778;DHT22;4425;50.872;4.712;2023-04-01T06:32:53;9.90;99.90
8778;DHT22;4425;50.872;4.712;2023-04-01T06:35:38;10.10;99.90
8778;DHT22;4425;50.872;4.712;2023-04-01T06:38:46;9.90;99.90
8778;DHT22;4425;50.872;4.712;2023-04-01T06:41:37;9.90;99.90
8778;DHT22;4425;50.872;4.712;2023-04-01T06:44:14;10.00;99.90
8778;DHT22;4425;50.872;4.712;2023-04-01T06:46:46;9.90;99.90
8778;DHT22;4425;50.872;4.712;2023-04-01T06:52:10;10.00;99.90
8778;DHT22;4425;50.872;4.712;2023-04-01T06:54:43;10.00;99.90
8778;DHT22;4425;50.872;4.712;2023-04-01T06:57:20;9.90;99.90
8778;DHT22;4425;50.872;4.712;2023-04-01T06:59:51;10.00;99.90
8778;DHT22;4425;50.872;4.712;2023-04-01T07:02:28;10.00;99.90
8778;DHT22;4425;50.872;4.712;2023-04-01T07:05:01;10.00;99.90
8778;DHT22;4425;50.872;4.712;2023-04-01T07:07:33;10.00;99.90
8778;DHT22;4425;50.872;4.712;2023-04-01T07:10:05;10.00;99.90
8778;DHT22;4425;50.872;4.712;2023-04-01T07:12:42;10.00;99.90
8778;DHT22;4425;50.872;4.712;2023-04-01T07:15:17;9.90;99.90
8778;DHT22;4425;50.872;4.712;2023-04-01T07:17:48;10.00;99.90
8778;DHT22;4425;50.872;4.712;2023-04-01T07:20:20;10.00;99.90
8778;DHT22;4425;50.872;4.712;2023-04-01T07:22:50;9.90;99.90
8778;DHT22;4425;50.872;4.712;2023-04-01T07:25:23;9.90;99.90
8778;DHT22;4425;50.872;4.712;2023-04-01T07:27:56;9.90;99.90
8778;DHT22;4425;50.872;4.712;2023-04-01T07:30:26;9.90;99.90
8778;DHT22;4425;50.872;4.712;2023-04-01T07:33:01;10.00;99.90
8778;DHT22;4425;50.872;4.712;2023-04-01T07:35:35;9.90;99.90
8778;DHT22;4425;50.872;4.712;2023-04-01T07:38:13;9.90;99.90
8778;DHT22;4425;50.872;4.712;2023-04-01T07:40:47;9.90;99.90
8778;DHT22;4425;50.872;4.712;2023-04-01T07:43:40;10.00;99.90
8778;DHT22;4425;50.872;4.712;2023-04-01T07:46:17;9.90;99.90
8778;DHT22;4425;50.872;4.712;2023-04-01T07:48:54;10.00;99.90
8778;DHT22;4425;50.872;4.712;2023-04-01T07:51:27;10.20;99.90
8778;DHT22;4425;50.872;4.712;2023-04-01T07:54:04;10.10;99.90
8778;DHT22;4425;50.872;4.712;2023-04-01T07:56:40;10.10;99.90
8778;DHT22;4425;50.872;4.712;2023-04-01T07:59:16;10.20;99.90
8778;DHT22;4425;50.872;4.712;2023-04-01T08:01:50;10.10;99.90
8778;DHT22;4425;50.872;4.712;2023-04-01T08:04:28;10.30;99.90
8778;DHT22;4425;50.872;4.712;2023-04-01T08:07:07;10.20;99.90
8778;DHT22;4425;50.872;4.712;2023-04-01T08:09:42;10.30;99.90
8778;DHT22;4425;50.872;4.712;2023-04-01T08:12:21;10.50;99.90
8778;DHT22;4425;50.872;4.712;2023-04-01T08:15:04;10.30;99.90
8778;DHT22;4425;50.872;4.712;2023-04-01T08:17:40;10.40;99.90
8778;DHT22;4425;50.872;4.712;2023-04-01T08:20:23;10.50;99.90
8778;DHT22;4425;50.872;4.712;2023-04-01T08:22:58;10.30;99.90
8778;DHT22;4425;50.872;4.712;2023-04-01T08:25:29;10.30;99.90
8778;DHT22;4425;50.872;4.712;2023-04-01T08:28:00;10.30;99.90
8778;DHT22;4425;50.872;4.712;2023-04-01T08:30:36;10.50;99.90
8778;DHT22;4425;50.872;4.712;2023-04-01T08:33:13;10.40;99.90
8778;DHT22;4425;50.872;4.712;2023-04-01T08:35:45;10.40;99.90
8778;DHT22;4425;50.872;4.712;2023-04-01T08:38:19;10.50;99.90
8778;DHT22;4425;50.872;4.712;2023-04-01T08:49:56;10.60;99.90
8778;DHT22;4425;50.872;4.712;2023-04-01T08:52:34;10.50;99.90
8778;DHT22;4425;50.872;4.712;2023-04-01T08:55:31;10.50;99.90
8778;DHT22;4425;50.872;4.712;2023-04-01T08:58:16;10.60;99.90
8778;DHT22;4425;50.872;4.712;2023-04-01T09:00:49;10.70;99.90
8778;DHT22;4425;50.872;4.712;2023-04-01T09:03:55;10.70;99.90
8778;DHT22;4425;50.872;4.712;2023-04-01T09:06:35;10.80;99.90
8778;DHT22;4425;50.872;4.712;2023-04-01T09:09:42;10.70;99.90
8778;DHT22;4425;50.872;4.712;2023-04-01T09:12:31;10.70;99.90
8778;DHT22;4425;50.872;4.712;2023-04-01T09:18:37;10.70;99.90
8778;DHT22;4425;50.872;4.712;2023-04-01T09:21:49;10.70;99.90
8778;DHT22;4425;50.872;4.712;2023-04-01T09:25:00;10.80;99.90
8778;DHT22;4425;50.872;4.712;2023-04-01T09:27:32;10.80;99.90
8778;DHT22;4425;50.872;4.712;2023-04-01T09:30:27;10.90;99.90
8778;DHT22;4425;50.872;4.712;2023-04-01T09:33:17;10.80;99.90
8778;DHT22;4425;50.872;4.712;2023-04-01T09:36:07;10.80;99.90
8778;DHT22;4425;50.872;4.712;2023-04-01T09:38:54;10.80;99.90
8778;DHT22;4425;50.872;4.712;2023-04-01T09:41:29;10.90;99.90
8778;DHT22;4425;50.872;4.712;2023-04-01T09:44:02;10.90;99.90
8778;DHT22;4425;50.872;4.712;2023-04-01T09:46:40;10.90;99.90
8778;DHT22;4425;50.872;4.712;2023-04-01T09:49:28;11.00;99.90
8778;DHT22;4425;50.872;4.712;2023-04-01T09:52:10;11.00;99.90
8778;DHT22;4425;50.872;4.712;2023-04-01T09:55:00;11.10;99.90
8778;DHT22;4425;50.872;4.712;2023-04-01T09:57:54;10.80;99.90
8778;DHT22;4425;50.872;4.712;2023-04-01T10:12:55;11.20;99.90
8778;DHT22;4425;50.872;4.712;2023-04-01T10:15:52;11.20;99.90
8778;DHT22;4425;50.872;4.712;2023-04-01T10:18:51;11.10;99.90
8778;DHT22;4425;50.872;4.712;2023-04-01T10:21:36;11.00;99.90
8778;DHT22;4425;50.872;4.712;2023-04-01T10:27:24;11.30;99.90
8778;DHT22;4425;50.872;4.712;2023-04-01T10:30:28;11.50;99.90
8778;DHT22;4425;50.872;4.712;2023-04-01T10:33:38;11.40;99.90
8778;DHT22;4425;50.872;4.712;2023-04-01T10:36:48;11.60;99.90
8778;DHT22;4425;50.872;4.712;2023-04-01T10:39:37;11.70;99.90
8778;DHT22;4425;50.872;4.712;2023-04-01T10:42:44;11.80;99.90
8778;DHT22;4425;50.872;4.712;2023-04-01T10:48:19;11.60;99.90
8778;DHT22;4425;50.872;4.712;2023-04-01T10:54:18;11.70;99.90
8778;DHT22;4425;50.872;4.712;2023-04-01T10:56:55;11.90;99.90
8778;DHT22;4425;50.872;4.712;2023-04-01T10:59:45;12.10;99.90
8778;DHT22;4425;50.872;4.712;2023-04-01T11:05:51;12.30;99.90
8778;DHT22;4425;50.872;4.712;2023-04-01T11:11:57;12.20;99.90
8778;DHT22;4425;50.872;4.712;2023-04-01T11:14:51;12.20;99.90
8778;DHT22;4425;50.872;4.712;2023-04-01T11:20:41;12.30;99.90
8778;DHT22;4425;50.872;4.712;2023-04-01T11:26:26;12.20;99.90
8778;DHT22;4425;50.872;4.712;2023-04-01T11:32:11;12.00;99.90
8778;DHT22;4425;50.872;4.712;2023-04-01T11:34:50;11.70;99.90
8778;DHT22;4425;50.872;4.712;2023-04-01T11:37:29;11.60;99.90
8778;DHT22;4425;50.872;4.712;2023-04-01T11:40:08;11.60;99.90
8778;DHT22;4425;50.872;4.712;2023-04-01T11:42:43;11.50;99.90
8778;DHT22;4425;50.872;4.712;2023-04-01T11:45:21;11.60;99.90
8778;DHT22;4425;50.872;4.712;2023-04-01T11:48:09;11.50;99.90
8778;DHT22;4425;50.872;4.712;2023-04-01T11:50:58;11.50;99.90
8778;DHT22;4425;50.872;4.712;2023-04-01T11:53:44;11.60;99.90
8778;DHT22;4425;50.872;4.712;2023-04-01T11:56:27;11.60;99.90
8778;DHT22;4425;50.872;4.712;2023-04-01T11:59:10;11.60;99.90
8778;DHT22;4425;50.872;4.712;2023-04-01T12:01:48;11.70;99.90
8778;DHT22;4425;50.872;4.712;2023-04-01T12:07:40;11.80;99.90
8778;DHT22;4425;50.872;4.712;2023-04-01T12:10:17;12.00;99.90
8778;DHT22;4425;50.872;4.712;2023-04-01T12:12:51;12.00;99.90
8778;DHT22;4425;50.872;4.712;2023-04-01T12:15:29;12.20;99.90
8778;DHT22;4425;50.872;4.712;2023-04-01T12:18:04;11.90;99.90
8778;DHT22;4425;50.872;4.712;2023-04-01T12:20:48;11.90;99.90
8778;DHT22;4425;50.872;4.712;2023-04-01T12:23:41;11.80;99.90
8778;DHT22;4425;50.872;4.712;2023-04-01T12:26:30;11.70;99.90
8778;DHT22;4425;50.872;4.712;2023-04-01T12:29:09;11.80;99.90
8778;DHT22;4425;50.872;4.712;2023-04-01T12:31:50;12.00;99.90
8778;DHT22;4425;50.872;4.712;2023-04-01T12:34:57;11.90;99.90
8778;DHT22;4425;50.872;4.712;2023-04-01T12:37:36;11.90;99.90
8778;DHT22;4425;50.872;4.712;2023-04-01T12:40:39;11.90;99.90
8778;DHT22;4425;50.872;4.712;2023-04-01T12:43:35;11.70;99.90
8778;DHT22;4425;50.872;4.712;2023-04-01T12:46:12;11.70;99.90
8778;DHT22;4425;50.872;4.712;2023-04-01T12:49:09;11.70;99.90
8778;DHT22;4425;50.872;4.712;2023-04-01T12:51:56;11.70;99.90
8778;DHT22;4425;50.872;4.712;2023-04-01T12:54:50;11.90;99.90
8778;DHT22;4425;50.872;4.712;2023-04-01T12:57:42;11.80;99.90
8778;DHT22;4425;50.872;4.712;2023-04-01T13:00:37;11.80;99.90
8778;DHT22;4425;50.872;4.712;2023-04-01T13:03:19;11.70;99.90
8778;DHT22;4425;50.872;4.712;2023-04-01T13:06:20;11.70;99.90
8778;DHT22;4425;50.872;4.712;2023-04-01T13:08:56;11.60;99.90
8778;DHT22;4425;50.872;4.712;2023-04-01T13:11:36;11.40;99.90
8778;DHT22;4425;50.872;4.712;2023-04-01T13:14:49;11.70;99.90
8778;DHT22;4425;50.872;4.712;2023-04-01T13:17:23;11.50;99.90
8778;DHT22;4425;50.872;4.712;2023-04-01T13:19:59;11.50;99.90
8778;DHT22;4425;50.872;4.712;2023-04-01T13:22:39;11.40;99.90
8778;DHT22;4425;50.872;4.712;2023-04-01T13:25:17;11.30;99.90
8778;DHT22;4425;50.872;4.712;2023-04-01T13:27:49;11.40;99.90
8778;DHT22;4425;50.872;4.712;2023-04-01T13:30:26;11.10;99.90
8778;DHT22;4425;50.872;4.712;2023-04-01T13:33:00;11.10;99.90
8778;DHT22;4425;50.872;4.712;2023-04-01T13:35:37;11.10;99.90
8778;DHT22;4425;50.872;4.712;2023-04-01T13:38:19;11.20;99.90
8778;DHT22;4425;50.872;4.712;2023-04-01T13:40:55;11.20;99.90
8778;DHT22;4425;50.872;4.712;2023-04-01T13:43:31;11.20;99.90
8778;DHT22;4425;50.872;4.712;2023-04-01T13:46:31;11.20;99.90
8778;DHT22;4425;50.872;4.712;2023-04-01T13:49:19;11.20;99.90
8778;DHT22;4425;50.872;4.712;2023-04-01T13:52:03;11.30;99.90
8778;DHT22;4425;50.872;4.712;2023-04-01T13:54:50;11.40;99.90
8778;DHT22;4425;50.872;4.712;2023-04-01T14:00:42;11.50;99.90
8778;DHT22;4425;50.872;4.712;2023-04-01T14:03:28;11.60;99.90
8778;DHT22;4425;50.872;4.712;2023-04-01T14:06:09;11.60;99.90
8778;DHT22;4425;50.872;4.712;2023-04-01T14:09:01;11.40;99.90
8778;DHT22;4425;50.872;4.712;2023-04-01T14:11:35;11.50;99.90
8778;DHT22;4425;50.872;4.712;2023-04-01T14:14:14;11.30;99.90
8778;DHT22;4425;50.872;4.712;2023-04-01T14:17:10;11.50;99.90
8778;DHT22;4425;50.872;4.712;2023-04-01T14:20:16;11.40;99.90
8778;DHT22;4425;50.872;4.712;2023-04-01T14:22:59;11.30;99.90
8778;DHT22;4425;50.872;4.712;2023-04-01T14:25:58;11.30;99.90
8778;DHT22;4425;50.872;4.712;2023-04-01T14:28:35;11.10;99.90
8778;DHT22;4425;50.872;4.712;2023-04-01T14:31:30;11.20;99.90
8778;DHT22;4425;50.872;4.712;2023-04-01T14:34:09;11.10;99.90
8778;DHT22;4425;50.872;4.712;2023-04-01T14:40:19;11.20;99.90
8778;DHT22;4425;50.872;4.712;2023-04-01T14:43:14;11.40;99.90
8778;DHT22;4425;50.872;4.712;2023-04-01T14:48:53;11.60;99.90
8778;DHT22;4425;50.872;4.712;2023-04-01T14:51:29;11.80;99.90
8778;DHT22;4425;50.872;4.712;2023-04-01T14:54:03;11.70;99.90
8778;DHT22;4425;50.872;4.712;2023-04-01T14:56:44;11.90;99.90
8778;DHT22;4425;50.872;4.712;2023-04-01T14:59:26;12.00;99.90
8778;DHT22;4425;50.872;4.712;2023-04-01T15:01:59;11.90;99.90
8778;DHT22;4425;50.872;4.712;2023-04-01T15:04:46;12.10;99.90
8778;DHT22;4425;50.872;4.712;2023-04-01T15:10:16;12.20;99.90
8778;DHT22;4425;50.872;4.712;2023-04-01T15:12:56;12.20;99.90
8778;DHT22;4425;50.872;4.712;2023-04-01T15:15:43;12.10;99.90
8778;DHT22;4425;50.872;4.712;2023-04-01T15:18:17;11.90;99.90
8778;DHT22;4425;50.872;4.712;2023-04-01T15:21:08;12.00;99.90
8778;DHT22;4425;50.872;4.712;2023-04-01T15:23:49;11.90;99.90
8778;DHT22;4425;50.872;4.712;2023-04-01T15:26:37;11.80;99.90
8778;DHT22;4425;50.872;4.712;2023-04-01T15:29:35;11.90;99.90
8778;DHT22;4425;50.872;4.712;2023-04-01T15:32:16;11.90;99.90
8778;DHT22;4425;50.872;4.712;2023-04-01T15:34:50;11.80;99.90
8778;DHT22;4425;50.872;4.712;2023-04-01T15:37:32;11.60;99.90
8778;DHT22;4425;50.872;4.712;2023-04-01T15:40:08;11.70;99.90
8778;DHT22;4425;50.872;4.712;2023-04-01T15:43:02;11.70;99.90
8778;DHT22;4425;50.872;4.712;2023-04-01T15:45:42;11.70;99.90
8778;DHT22;4425;50.872;4.712;2023-04-01T15:48:24;11.60;99.90
8778;DHT22;4425;50.872;4.712;2023-04-01T15:51:16;11.50;99.90
8778;DHT22;4425;50.872;4.712;2023-04-01T15:54:06;11.40;99.90
8778;DHT22;4425;50.872;4.712;2023-04-01T15:56:49;11.30;99.90
8778;DHT22;4425;50.872;4.712;2023-04-01T15:59:27;11.30;99.90
8778;DHT22;4425;50.872;4.712;2023-04-01T16:02:10;11.30;99.90
8778;DHT22;4425;50.872;4.712;2023-04-01T16:04:58;11.20;99.90
8778;DHT22;4425;50.872;4.712;2023-04-01T16:07:43;11.10;99.90
8778;DHT22;4425;50.872;4.712;2023-04-01T16:10:26;11.20;99.90
8778;DHT22;4425;50.872;4.712;2023-04-01T16:13:12;11.00;99.90
8778;DHT22;4425;50.872;4.712;2023-04-01T16:15:51;11.00;99.90
8778;DHT22;4425;50.872;4.712;2023-04-01T16:21:35;11.00;99.90
8778;DHT22;4425;50.872;4.712;2023-04-01T16:24:12;10.90;99.90
8778;DHT22;4425;50.872;4.712;2023-04-01T16:26:47;10.90;99.90
8778;DHT22;4425;50.872;4.712;2023-04-01T16:29:22;10.90;99.90
8778;DHT22;4425;50.872;4.712;2023-04-01T16:31:55;11.00;99.90
8778;DHT22;4425;50.872;4.712;2023-04-01T16:34:29;10.80;99.90
8778;DHT22;4425;50.872;4.712;2023-04-01T16:37:05;10.70;99.90
8778;DHT22;4425;50.872;4.712;2023-04-01T16:39:41;10.70;99.90
8778;DHT22;4425;50.872;4.712;2023-04-01T16:42:24;10.60;99.90
8778;DHT22;4425;50.872;4.712;2023-04-01T16:44:55;10.60;99.90
8778;DHT22;4425;50.872;4.712;2023-04-01T16:47:30;10.60;99.90
8778;DHT22;4425;50.872;4.712;2023-04-01T16:50:00;10.60;99.90
8778;DHT22;4425;50.872;4.712;2023-04-01T16:52:51;10.50;99.90
8778;DHT22;4425;50.872;4.712;2023-04-01T16:55:34;10.50;99.90
8778;DHT22;4425;50.872;4.712;2023-04-01T16:58:01;10.30;99.90
8778;DHT22;4425;50.872;4.712;2023-04-01T17:00:37;10.20;99.90
8778;DHT22;4425;50.872;4.712;2023-04-01T17:03:13;10.40;99.90
8778;DHT22;4425;50.872;4.712;2023-04-01T17:05:55;10.40;99.90
8778;DHT22;4425;50.872;4.712;2023-04-01T17:08:34;10.50;99.90
8778;DHT22;4425;50.872;4.712;2023-04-01T17:11:10;10.40;99.90
8778;DHT22;4425;50.872;4.712;2023-04-01T17:13:46;10.50;99.90
8778;DHT22;4425;50.872;4.712;2023-04-01T17:16:34;10.30;99.90
8778;DHT22;4425;50.872;4.712;2023-04-01T17:19:12;10.40;99.90
8778;DHT22;4425;50.872;4.712;2023-04-01T17:21:57;10.30;99.90
8778;DHT22;4425;50.872;4.712;2023-04-01T17:24:41;10.40;99.90
8778;DHT22;4425;50.872;4.712;2023-04-01T17:27:18;10.20;99.90
8778;DHT22;4425;50.872;4.712;2023-04-01T17:30:08;10.20;99.90
8778;DHT22;4425;50.872;4.712;2023-04-01T17:32:46;10.10;99.90
8778;DHT22;4425;50.872;4.712;2023-04-01T17:35:18;10.30;99.90
8778;DHT22;4425;50.872;4.712;2023-04-01T17:37:59;10.10;99.90
8778;DHT22;4425;50.872;4.712;2023-04-01T17:40:39;10.10;99.90
8778;DHT22;4425;50.872;4.712;2023-04-01T17:43:20;10.10;99.90
8778;DHT22;4425;50.872;4.712;2023-04-01T17:45:53;10.10;99.90
8778;DHT22;4425;50.872;4.712;2023-04-01T17:48:29;10.10;99.90
8778;DHT22;4425;50.872;4.712;2023-04-01T17:51:11;10.10;99.90
8778;DHT22;4425;50.872;4.712;2023-04-01T17:53:46;10.10;99.90
8778;DHT22;4425;50.872;4.712;2023-04-01T17:56:23;10.00;99.90
8778;DHT22;4425;50.872;4.712;2023-04-01T17:58:58;10.20;99.90
8778;DHT22;4425;50.872;4.712;2023-04-01T18:01:37;10.00;99.90
8778;DHT22;4425;50.872;4.712;2023-04-01T18:04:15;10.00;99.90
8778;DHT22;4425;50.872;4.712;2023-04-01T18:07:08;10.00;99.90
8778;DHT22;4425;50.872;4.712;2023-04-01T18:09:44;10.10;99.90
8778;DHT22;4425;50.872;4.712;2023-04-01T18:12:21;10.10;99.90
8778;DHT22;4425;50.872;4.712;2023-04-01T18:15:15;10.00;99.90
8778;DHT22;4425;50.872;4.712;2023-04-01T18:17:58;10.00;99.90
8778;DHT22;4425;50.872;4.712;2023-04-01T18:20:43;10.00;99.90
8778;DHT22;4425;50.872;4.712;2023-04-01T18:23:23;10.10;99.90
8778;DHT22;4425;50.872;4.712;2023-04-01T18:25:54;10.00;99.90
8778;DHT22;4425;50.872;4.712;2023-04-01T18:28:33;10.00;99.90